Time;durP1;ratioP1;P1;durP2;ratioP2;P2;SDS_P1;SDS_P2;PMS_P1;PMS_P2;Temp;Humidity;BMP_temperature;BMP_pressure;BME280_temperature;BME280_humidity;BME280_pressure;Samples;Min_cycle;Max_cycle;Signal;HPM_P1;HPM_P2
2021/04/09 00:02:02;;;;;;;9.67;5.10;;;-1.00;99.90;;;;;;5094843;28;20055;-71
2021/04/09 00:04:28;;;;;;;9.80;4.67;;;-0.90;99.90;;;;;;5095457;28;20028;-71
2021/04/09 00:06:53;;;;;;;6.40;4.37;;;-1.00;99.90;;;;;;5094906;28;20472;-71
2021/04/09 00:09:19;;;;;;;8.67;3.80;;;-0.90;99.90;;;;;;5094397;28;20428;-71
2021/04/09 00:11:45;;;;;;;7.10;4.00;;;-0.90;99.90;;;;;;5094716;28;20028;-71
2021/04/09 00:14:14;;;;;;;7.43;4.30;;;-0.90;99.90;;;;;;5094485;28;20255;-74
2021/04/09 00:16:40;;;;;;;8.17;4.43;;;-0.80;99.90;;;;;;5092106;28;20020;-75
2021/04/09 00:19:08;;;;;;;7.90;4.40;;;-0.80;99.90;;;;;;5092091;28;20044;-75
2021/04/09 00:21:34;;;;;;;7.80;4.40;;;-0.80;99.90;;;;;;5087943;28;20131;-75
2021/04/09 00:23:59;;;;;;;8.97;4.10;;;-0.70;99.90;;;;;;5091819;28;20416;-75
2021/04/09 00:26:29;;;;;;;8.43;4.20;;;-0.60;99.90;;;;;;5092208;28;20028;-74
2021/04/09 00:28:54;;;;;;;7.23;4.20;;;-0.60;99.90;;;;;;5090320;28;20776;-75
2021/04/09 00:31:21;;;;;;;8.77;4.63;;;-0.60;99.90;;;;;;5091801;28;20055;-74
2021/04/09 00:33:46;;;;;;;7.67;4.00;;;-0.50;99.90;;;;;;5091986;28;20094;-74
2021/04/09 00:36:12;;;;;;;9.47;4.10;;;-0.50;99.90;;;;;;5091926;28;20048;-74
2021/04/09 00:38:37;;;;;;;8.77;3.63;;;-0.50;99.90;;;;;;5091791;28;20028;-73
2021/04/09 00:41:03;;;;;;;7.47;4.17;;;-0.50;99.90;;;;;;5073471;28;20024;-73
2021/04/09 00:43:29;;;;;;;8.60;3.83;;;-0.50;99.90;;;;;;5091639;28;20020;-73
2021/04/09 00:45:55;;;;;;;6.20;4.47;;;-0.50;99.90;;;;;;5089947;28;20028;-73
2021/04/09 00:48:20;;;;;;;13.47;5.63;;;-0.50;99.90;;;;;;5073393;28;20043;-73
2021/04/09 00:50:46;;;;;;;5.70;3.83;;;-0.50;99.90;;;;;;5091082;28;20040;-73
2021/04/09 00:53:14;;;;;;;9.27;4.10;;;-0.50;99.90;;;;;;5091244;28;20100;-73
2021/04/09 00:55:40;;;;;;;6.97;4.10;;;-0.30;99.90;;;;;;5091339;28;20024;-73
2021/04/09 00:58:06;;;;;;;7.87;4.03;;;-0.40;99.90;;;;;;5072735;28;20062;-73
2021/04/09 01:00:32;;;;;;;7.87;3.50;;;-0.30;99.90;;;;;;5091116;28;20103;-73
2021/04/09 01:02:59;;;;;;;6.50;3.73;;;-0.30;99.90;;;;;;5091091;28;20039;-73
2021/04/09 01:05:25;;;;;;;5.97;3.53;;;-0.30;99.90;;;;;;5089588;28;20111;-73
2021/04/09 01:07:51;;;;;;;10.40;4.00;;;-0.30;99.90;;;;;;5083563;28;20146;-73
2021/04/09 01:10:19;;;;;;;6.33;3.77;;;-0.30;99.90;;;;;;5091047;28;20524;-73
2021/04/09 01:12:46;;;;;;;6.67;3.97;;;-0.30;99.90;;;;;;5091335;28;20389;-73
2021/04/09 01:15:13;;;;;;;7.17;3.70;;;-0.40;99.90;;;;;;5090917;28;20472;-73
2021/04/09 01:17:46;;;;;;;10.53;4.10;;;-0.40;99.90;;;;;;5090832;28;20048;-73
2021/04/09 01:20:30;;;;;;;8.73;4.13;;;-0.40;99.90;;;;;;5090613;28;20050;-73
2021/04/09 01:23:20;;;;;;;6.13;3.77;;;-0.40;99.90;;;;;;5087195;28;20472;-73
2021/04/09 01:26:01;;;;;;;7.37;3.83;;;-0.40;99.90;;;;;;5078184;28;20020;-73
2021/04/09 01:29:04;;;;;;;7.33;4.23;;;-0.40;99.90;;;;;;5082147;28;20017;-73
2021/04/09 01:31:58;;;;;;;6.60;3.80;;;-0.40;99.90;;;;;;5078738;28;20012;-73
2021/04/09 01:34:26;;;;;;;5.63;3.83;;;-0.50;99.90;;;;;;5072425;28;20072;-73
2021/04/09 01:36:54;;;;;;;9.43;4.20;;;-0.50;99.90;;;;;;5082404;28;20031;-73
2021/04/09 01:39:21;;;;;;;6.53;4.47;;;-0.50;99.90;;;;;;5090470;28;20024;-73
2021/04/09 01:41:50;;;;;;;8.10;3.87;;;-0.60;99.90;;;;;;5090628;28;20020;-73
2021/04/09 01:44:18;;;;;;;8.47;3.97;;;-0.60;99.90;;;;;;5090514;28;20032;-73
2021/04/09 01:46:45;;;;;;;9.43;4.23;;;-0.70;99.90;;;;;;5091176;28;20112;-73
2021/04/09 01:49:12;;;;;;;6.27;4.00;;;-0.70;99.90;;;;;;5101669;28;20020;-73
2021/04/09 01:51:39;;;;;;;6.87;4.40;;;-0.70;99.90;;;;;;5109680;28;20024;-73
2021/04/09 01:54:07;;;;;;;5.57;3.57;;;-0.80;99.90;;;;;;5101651;28;20024;-73
2021/04/09 01:56:35;;;;;;;5.83;3.80;;;-0.80;99.90;;;;;;5076366;28;20423;-73
2021/04/09 01:59:01;;;;;;;7.23;3.60;;;-0.80;99.90;;;;;;5090743;28;20440;-73
2021/04/09 02:01:27;;;;;;;5.43;3.50;;;-0.90;99.90;;;;;;5090277;28;20089;-73
2021/04/09 02:03:54;;;;;;;6.30;3.47;;;-0.90;99.90;;;;;;5090305;28;20085;-73
2021/04/09 02:06:21;;;;;;;7.60;3.60;;;-0.90;99.90;;;;;;5090097;28;20507;-73
2021/04/09 02:08:48;;;;;;;14.17;4.03;;;-1.00;99.90;;;;;;5072302;28;20534;-73
2021/04/09 02:11:15;;;;;;;6.73;4.00;;;-1.00;99.90;;;;;;5090154;28;20053;-73
2021/04/09 02:13:41;;;;;;;8.07;3.70;;;-1.10;99.90;;;;;;5089757;28;20038;-73
2021/04/09 02:16:07;;;;;;;6.70;3.97;;;-1.10;99.90;;;;;;5089802;28;20376;-73
2021/04/09 02:18:33;;;;;;;7.77;3.87;;;-1.10;99.90;;;;;;5081787;28;20515;-73
2021/04/09 02:21:03;;;;;;;6.47;3.90;;;-1.10;99.90;;;;;;5071807;28;20032;-73
2021/04/09 02:23:29;;;;;;;7.13;3.80;;;-1.10;99.90;;;;;;5088319;28;20498;-72
2021/04/09 02:25:59;;;;;;;6.30;3.77;;;-1.20;99.90;;;;;;5089725;28;20043;-73
2021/04/09 02:28:25;;;;;;;8.43;3.60;;;-1.20;99.90;;;;;;5089614;28;20032;-73
2021/04/09 02:31:34;;;;;;;8.70;4.10;;;-1.20;99.90;;;;;;5087689;28;20067;-73
2021/04/09 02:33:42;;;;;;;9.00;4.20;;;-1.20;99.90;;;;;;5080561;28;20476;-73
2021/04/09 02:36:13;;;;;;;8.03;4.93;;;-1.30;99.90;;;;;;5096612;28;20361;-72
2021/04/09 02:38:41;;;;;;;11.37;6.00;;;-1.30;99.90;;;;;;5096389;28;20747;-72
2021/04/09 02:41:08;;;;;;;9.17;5.50;;;-1.30;99.90;;;;;;5096295;28;20503;-72
2021/04/09 02:43:34;;;;;;;8.47;4.67;;;-1.30;99.90;;;;;;5096343;28;20479;-72
2021/04/09 02:46:00;;;;;;;7.77;4.47;;;-1.30;99.90;;;;;;5096157;28;20123;-72
2021/04/09 02:48:29;;;;;;;7.33;3.90;;;-1.40;99.90;;;;;;5094826;28;20031;-72
2021/04/09 02:50:58;;;;;;;7.90;4.30;;;-1.40;99.90;;;;;;5096234;28;20036;-72
2021/04/09 02:53:29;;;;;;;7.17;4.30;;;-1.40;99.90;;;;;;5096279;28;20024;-72
2021/04/09 02:55:56;;;;;;;8.80;4.67;;;-1.40;99.90;;;;;;5078024;28;20024;-73
2021/04/09 02:58:24;;;;;;;8.10;4.13;;;-1.40;99.90;;;;;;5077872;28;20445;-72
2021/04/09 03:00:52;;;;;;;9.33;4.77;;;-1.50;99.90;;;;;;5096348;28;20027;-72
2021/04/09 03:03:20;;;;;;;8.83;3.97;;;-1.50;99.90;;;;;;5096035;28;20508;-73
2021/04/09 03:05:49;;;;;;;11.43;5.10;;;-1.50;99.90;;;;;;5096165;28;20036;-73
2021/04/09 03:08:17;;;;;;;15.50;4.97;;;-1.50;99.90;;;;;;5096038;28;20035;-73
2021/04/09 03:10:43;;;;;;;9.27;4.30;;;-1.60;99.90;;;;;;5096223;28;20038;-72
2021/04/09 03:13:08;;;;;;;8.23;4.20;;;-1.60;99.90;;;;;;5096066;28;20028;-72
2021/04/09 03:15:49;;;;;;;10.63;4.80;;;-1.60;99.90;;;;;;5095993;28;20020;-72
2021/04/09 03:18:17;;;;;;;7.63;4.13;;;-1.60;99.90;;;;;;5094525;28;20042;-73
2021/04/09 03:20:42;;;;;;;9.07;4.60;;;-1.60;99.90;;;;;;5077761;28;20024;-72
2021/04/09 03:23:08;;;;;;;10.00;5.77;;;-1.60;99.90;;;;;;5095879;28;20043;-72
2021/04/09 03:25:35;;;;;;;10.50;4.80;;;-1.70;99.90;;;;;;5077766;28;20024;-72
2021/04/09 03:28:02;;;;;;;9.80;4.70;;;-1.70;99.90;;;;;;5095837;28;20028;-73
2021/04/09 03:30:28;;;;;;;8.80;4.03;;;-1.70;99.90;;;;;;5095946;28;20550;-72
2021/04/09 03:32:54;;;;;;;5.90;3.80;;;-1.70;99.90;;;;;;5095983;28;20053;-72
2021/04/09 03:35:20;;;;;;;6.90;4.17;;;-1.80;99.90;;;;;;5096129;28;20123;-72
2021/04/09 03:37:46;;;;;;;11.07;4.47;;;-1.80;99.90;;;;;;5095669;28;20024;-72
2021/04/09 03:40:13;;;;;;;10.70;4.67;;;-1.80;99.90;;;;;;5095917;28;20032;-73
2021/04/09 03:42:39;;;;;;;12.67;4.53;;;-1.80;99.90;;;;;;5095830;28;20028;-73
2021/04/09 03:45:06;;;;;;;13.10;4.73;;;-1.90;99.90;;;;;;5093208;28;20048;-73
2021/04/09 03:47:32;;;;;;;16.47;4.40;;;-1.90;99.90;;;;;;5091548;28;20107;-73
2021/04/09 03:50:00;;;;;;;9.53;4.23;;;-1.90;99.90;;;;;;5092338;28;20115;-73
2021/04/09 03:52:26;;;;;;;8.27;4.30;;;-2.00;99.90;;;;;;5091835;28;20032;-72
2021/04/09 03:54:51;;;;;;;9.00;4.20;;;-2.00;99.90;;;;;;5092047;28;20039;-72
2021/04/09 03:57:18;;;;;;;10.67;4.40;;;-2.00;99.90;;;;;;5091985;28;20036;-72
2021/04/09 03:59:43;;;;;;;11.97;4.37;;;-2.10;99.90;;;;;;5091873;28;20077;-72
2021/04/09 04:02:09;;;;;;;8.43;4.37;;;-2.10;99.90;;;;;;5091970;28;20805;-72
2021/04/09 04:04:34;;;;;;;12.20;4.50;;;-2.10;99.90;;;;;;5092125;28;20036;-72
2021/04/09 04:07:00;;;;;;;8.23;4.63;;;-2.10;99.90;;;;;;5092077;28;20391;-72
2021/04/09 04:09:26;;;;;;;10.20;4.80;;;-2.10;99.90;;;;;;5091947;28;20034;-72
2021/04/09 04:11:51;;;;;;;14.33;5.23;;;-2.10;99.90;;;;;;5091520;28;20395;-72
2021/04/09 04:14:17;;;;;;;14.87;5.10;;;-2.10;99.90;;;;;;5081087;28;20025;-72
2021/04/09 04:16:43;;;;;;;18.30;6.13;;;-2.20;99.90;;;;;;5086850;28;20024;-72
2021/04/09 04:19:08;;;;;;;13.17;5.83;;;-2.20;99.90;;;;;;5073410;28;20048;-76
2021/04/09 04:21:34;;;;;;;8.23;5.23;;;-2.20;99.90;;;;;;5080463;28;20062;-72
2021/04/09 04:24:00;;;;;;;9.93;5.43;;;-2.20;99.90;;;;;;5080287;28;20514;-72
2021/04/09 04:26:26;;;;;;;9.40;5.87;;;-2.20;99.90;;;;;;5081453;28;20397;-73
2021/04/09 04:28:51;;;;;;;10.00;5.00;;;-2.20;99.90;;;;;;5093188;28;20161;-69
2021/04/09 04:31:17;;;;;;;7.60;5.30;;;-2.20;99.90;;;;;;5082506;28;20077;-74
2021/04/09 04:33:42;;;;;;;7.80;4.70;;;-2.30;99.90;;;;;;5084882;28;20127;-74
2021/04/09 04:36:08;;;;;;;7.37;4.70;;;-2.30;99.90;;;;;;5070756;28;20048;-74
2021/04/09 04:38:34;;;;;;;8.07;4.67;;;-2.30;99.90;;;;;;5074308;28;20035;-74
2021/04/09 04:41:00;;;;;;;9.27;5.20;;;-2.30;99.90;;;;;;5072205;28;20194;-74
2021/04/09 04:43:26;;;;;;;10.57;6.10;;;-2.40;99.90;;;;;;5084190;28;20031;-74
2021/04/09 04:45:52;;;;;;;9.17;5.50;;;-2.40;99.90;;;;;;5076591;28;20040;-74
2021/04/09 04:48:18;;;;;;;7.47;4.67;;;-2.40;99.90;;;;;;5077387;28;20062;-74
2021/04/09 04:50:43;;;;;;;8.67;5.13;;;-2.40;99.90;;;;;;5073780;28;20131;-74
2021/04/09 04:53:09;;;;;;;9.63;5.63;;;-2.40;99.90;;;;;;5086828;28;20027;-72
2021/04/09 04:55:35;;;;;;;9.23;5.50;;;-2.40;99.90;;;;;;5080408;28;20096;-74
2021/04/09 04:58:01;;;;;;;9.83;5.60;;;-2.50;99.90;;;;;;5084117;28;20099;-74
2021/04/09 05:00:26;;;;;;;10.20;5.57;;;-2.50;99.90;;;;;;5075327;28;20739;-74
2021/04/09 05:02:53;;;;;;;11.70;6.00;;;-2.40;99.90;;;;;;5067981;28;20054;-74
2021/04/09 05:05:19;;;;;;;13.03;6.10;;;-2.40;99.90;;;;;;5077588;28;20048;-74
2021/04/09 05:07:47;;;;;;;10.40;5.47;;;-2.40;99.90;;;;;;5075310;28;20111;-74
2021/04/09 05:10:12;;;;;;;9.87;5.50;;;-2.40;99.90;;;;;;5080878;28;20020;-75
2021/04/09 05:12:39;;;;;;;14.63;5.90;;;-2.30;99.90;;;;;;5075256;28;20028;-74
2021/04/09 05:15:06;;;;;;;10.00;5.40;;;-2.30;99.90;;;;;;5070092;28;20021;-74
2021/04/09 05:17:32;;;;;;;10.13;5.50;;;-2.20;99.90;;;;;;5058024;28;20072;-74
2021/04/09 05:19:57;;;;;;;11.97;5.00;;;-2.10;99.90;;;;;;5077298;28;20063;-69
2021/04/09 05:22:23;;;;;;;7.10;4.80;;;-2.00;99.90;;;;;;5082702;28;20038;-68
2021/04/09 05:24:49;;;;;;;10.67;5.30;;;-1.90;99.90;;;;;;5082100;28;20028;-68
2021/04/09 05:27:15;;;;;;;9.10;4.50;;;-1.80;99.90;;;;;;5080822;28;20036;-69
2021/04/09 05:29:41;;;;;;;9.63;5.40;;;-1.60;99.90;;;;;;5083655;28;20039;-70
2021/04/09 05:32:11;;;;;;;8.53;6.17;;;-1.40;99.90;;;;;;5091392;28;20476;-68
2021/04/09 05:34:37;;;;;;;12.97;6.13;;;-1.30;99.90;;;;;;5085558;28;20087;-68
2021/04/09 05:37:04;;;;;;;14.33;6.90;;;-1.20;99.90;;;;;;5088534;28;20035;-68
2021/04/09 05:39:29;;;;;;;15.13;6.20;;;-1.10;99.90;;;;;;5078777;28;20012;-69
2021/04/09 05:41:55;;;;;;;12.63;5.43;;;-0.90;99.90;;;;;;5089523;28;20108;-69
2021/04/09 05:44:21;;;;;;;8.60;4.83;;;-0.90;99.90;;;;;;5084883;28;20024;-69
2021/04/09 05:46:47;;;;;;;13.77;4.87;;;-0.70;99.90;;;;;;5091776;28;20088;-72
2021/04/09 05:49:13;;;;;;;8.23;4.20;;;-0.70;99.90;;;;;;5081703;28;20040;-71
2021/04/09 05:51:38;;;;;;;10.20;4.83;;;-0.40;99.90;;;;;;5090001;28;20032;-71
2021/04/09 05:54:04;;;;;;;8.53;4.77;;;-0.20;99.90;;;;;;5091706;28;20093;-71
2021/04/09 05:56:30;;;;;;;8.40;4.17;;;0.10;99.90;;;;;;5091927;28;20042;-71
2021/04/09 05:58:56;;;;;;;8.63;4.10;;;0.40;99.90;;;;;;5088656;28;20425;-72
2021/04/09 06:01:22;;;;;;;6.57;3.67;;;0.60;99.90;;;;;;5091816;28;20024;-72
2021/04/09 06:03:48;;;;;;;7.03;4.37;;;0.80;99.90;;;;;;5087480;28;20024;-71
2021/04/09 06:06:14;;;;;;;11.47;4.13;;;0.90;99.90;;;;;;5087455;28;20476;-72
2021/04/09 06:08:40;;;;;;;10.80;4.00;;;1.10;99.90;;;;;;5091691;28;20035;-72
2021/04/09 06:11:05;;;;;;;10.20;4.77;;;1.30;99.90;;;;;;5093233;28;20024;-72
2021/04/09 06:13:31;;;;;;;13.93;4.30;;;1.40;99.90;;;;;;5098847;28;20017;-72
2021/04/09 06:15:57;;;;;;;11.30;4.47;;;1.40;99.90;;;;;;5092567;28;20016;-72
2021/04/09 06:18:22;;;;;;;14.53;4.53;;;1.30;99.90;;;;;;5059895;28;20495;-72
2021/04/09 06:20:48;;;;;;;18.33;5.30;;;1.30;99.90;;;;;;5076510;28;20033;-72
2021/04/09 06:23:14;;;;;;;14.33;4.10;;;1.30;99.90;;;;;;5076626;28;20059;-72
2021/04/09 06:25:40;;;;;;;6.97;4.23;;;1.30;99.90;;;;;;5079735;28;20028;-72
2021/04/09 06:28:05;;;;;;;10.00;3.77;;;1.40;99.90;;;;;;5077799;28;20031;-72
2021/04/09 06:30:31;;;;;;;6.73;3.40;;;1.40;99.90;;;;;;5080642;28;20109;-72
2021/04/09 06:32:56;;;;;;;8.43;3.80;;;1.60;99.90;;;;;;5075952;28;20024;-72
2021/04/09 06:35:22;;;;;;;12.40;4.40;;;1.70;99.90;;;;;;5077812;28;20503;-73
2021/04/09 06:37:48;;;;;;;8.47;3.30;;;1.90;99.90;;;;;;5089603;28;20028;-72
2021/04/09 06:40:14;;;;;;;10.77;3.20;;;1.90;99.90;;;;;;5070727;28;20032;-73
2021/04/09 06:42:41;;;;;;;4.50;3.40;;;2.10;99.90;;;;;;5071482;28;20024;-76
2021/04/09 06:45:07;;;;;;;8.17;3.70;;;2.20;99.90;;;;;;5089378;28;20020;-76
2021/04/09 06:47:33;;;;;;;11.10;4.40;;;2.30;99.90;;;;;;5071707;28;20074;-70
2021/04/09 06:49:59;;;;;;;9.87;3.33;;;2.30;99.90;;;;;;5090767;28;20031;-69
2021/04/09 06:52:28;;;;;;;9.33;3.90;;;2.50;99.90;;;;;;5091758;28;20516;-73
2021/04/09 06:54:54;;;;;;;8.80;3.23;;;2.50;99.90;;;;;;5071748;28;20028;-76
2021/04/09 06:57:21;;;;;;;11.13;4.00;;;2.70;99.90;;;;;;5089249;28;20099;-73
2021/04/09 06:59:47;;;;;;;9.20;3.20;;;2.80;99.90;;;;;;5083186;28;20507;-70
2021/04/09 07:02:15;;;;;;;14.07;3.97;;;2.90;99.90;;;;;;5089351;28;20056;-70
2021/04/09 07:04:42;;;;;;;8.33;3.20;;;3.10;99.90;;;;;;5088548;28;20032;-76
2021/04/09 07:07:13;;;;;;;12.10;3.63;;;3.20;99.90;;;;;;5078751;28;20361;-76
2021/04/09 07:09:41;;;;;;;8.83;3.17;;;3.30;99.90;;;;;;5089826;28;20107;-73
2021/04/09 07:12:07;;;;;;;5.73;3.23;;;3.50;99.90;;;;;;5081046;28;20024;-73
2021/04/09 07:14:52;;;;;;;10.30;2.93;;;3.60;99.90;;;;;;5091306;28;20302;-73
2021/04/09 07:17:25;;;;;;;;;;;3.80;99.90;;;;;;5091469;28;20016;-72
2021/04/09 07:19:51;;;;;;;7.50;2.67;;;4.00;99.90;;;;;;5092490;28;19907;-72
2021/04/09 07:22:29;;;;;;;4.80;2.20;;;4.30;99.90;;;;;;5094925;28;20091;-69
2021/04/09 07:25:14;;;;;;;6.57;2.80;;;4.60;99.90;;;;;;5075848;28;20468;-69
2021/04/09 07:27:41;;;;;;;9.40;2.95;;;4.80;99.90;;;;;;5094182;28;20028;-69
2021/04/09 07:30:09;;;;;;;5.23;2.10;;;5.00;99.90;;;;;;5089275;28;20472;-78
2021/04/09 07:32:36;;;;;;;4.40;1.80;;;5.30;99.90;;;;;;5086294;28;20101;-69
2021/04/09 07:35:12;;;;;;;5.13;2.27;;;5.50;99.90;;;;;;5074125;28;20024;-69
2021/04/09 07:37:58;;;;;;;4.50;2.10;;;5.80;99.90;;;;;;5094110;28;20097;-69
2021/04/09 07:40:30;;;;;;;5.78;2.10;;;6.10;99.90;;;;;;5093581;28;20129;-78
2021/04/09 07:42:57;;;;;;;5.60;2.00;;;6.30;99.90;;;;;;5090936;28;20043;-78
2021/04/09 07:45:23;;;;;;;11.63;3.63;;;6.50;98.60;;;;;;5092326;28;20099;-77
2021/04/09 07:48:03;;;;;;;7.10;2.07;;;6.70;94.60;;;;;;5091974;28;20086;-77
2021/04/09 07:50:35;;;;;;;7.60;2.00;;;7.10;90.90;;;;;;5089696;28;20024;-77
2021/04/09 07:53:01;;;;;;;4.27;1.60;;;7.30;88.80;;;;;;5091617;28;20034;-77
2021/04/09 07:55:31;;;;;;;5.63;1.93;;;7.50;85.50;;;;;;5092145;28;20024;-77
2021/04/09 07:58:23;;;;;;;3.93;1.60;;;7.70;84.10;;;;;;5091620;28;20028;-78
2021/04/09 08:00:51;;;;;;;3.07;1.60;;;7.90;80.30;;;;;;5085132;28;20025;-77
2021/04/09 08:03:35;;;;;;;3.83;1.70;;;8.30;78.00;;;;;;5082245;28;20035;-77
2021/04/09 08:06:07;;;;;;;4.43;1.30;;;8.50;75.40;;;;;;5093936;28;20024;-72
2021/04/09 08:08:37;;;;;;;6.30;1.57;;;8.70;72.00;;;;;;5074428;28;20021;-71
2021/04/09 08:11:23;;;;;;;4.40;1.63;;;8.90;71.40;;;;;;5074566;28;20493;-71
2021/04/09 08:13:58;;;;;;;;;;;9.10;70.80;;;;;;5075344;28;20017;-71
2021/04/09 08:16:44;;;;;;;3.30;1.70;;;9.20;71.40;;;;;;5074511;28;19969;-72
2021/04/09 08:19:14;;;;;;;4.60;1.70;;;9.40;69.30;;;;;;5074113;28;20036;-69
2021/04/09 08:21:51;;;;;;;4.27;1.87;;;9.70;66.10;;;;;;5087366;28;20032;-69
2021/04/09 08:24:18;;;;;;;5.70;1.57;;;9.90;64.10;;;;;;5080756;28;20092;-77
2021/04/09 08:26:44;;;;;;;3.27;1.63;;;10.00;66.20;;;;;;5091405;28;20016;-77
2021/04/09 08:29:14;;;;;;;5.50;1.87;;;10.10;65.20;;;;;;5071072;28;20031;-76
2021/04/09 08:31:40;;;;;;;3.93;1.73;;;10.20;62.40;;;;;;5091338;28;20089;-78
2021/04/09 08:34:08;;;;;;;4.17;2.17;;;10.30;61.50;;;;;;5094161;28;20016;-71
2021/04/09 08:36:36;;;;;;;4.83;1.67;;;10.40;63.50;;;;;;5094158;28;20043;-72
2021/04/09 08:39:04;;;;;;;3.17;1.57;;;10.40;62.80;;;;;;5084640;28;20017;-73
2021/04/09 08:41:30;;;;;;;7.03;1.80;;;10.70;59.20;;;;;;5089828;28;20051;-74
2021/04/09 08:43:56;;;;;;;4.57;1.40;;;10.70;58.90;;;;;;5072155;28;20020;-77
2021/04/09 08:46:21;;;;;;;6.03;1.67;;;10.70;59.60;;;;;;5089940;28;20039;-77
2021/04/09 08:48:48;;;;;;;2.33;1.40;;;10.80;59.10;;;;;;5085435;28;20039;-70
2021/04/09 08:51:20;;;;;;;3.43;1.77;;;10.90;59.70;;;;;;5092410;28;20020;-69
2021/04/09 08:53:45;;;;;;;3.10;1.40;;;11.10;57.10;;;;;;5091938;28;20028;-71
2021/04/09 08:56:11;;;;;;;6.97;1.90;;;11.30;57.20;;;;;;5093775;28;20077;-71
2021/04/09 08:58:45;;;;;;;3.77;1.97;;;11.30;57.00;;;;;;5093533;28;20464;-70
2021/04/09 09:01:12;;;;;;;3.10;1.70;;;11.50;56.00;;;;;;5091335;28;20130;-71
2021/04/09 09:03:39;;;;;;;4.63;1.80;;;11.60;56.40;;;;;;5083818;28;20029;-64
2021/04/09 09:06:06;;;;;;;4.27;1.63;;;11.70;57.20;;;;;;5085326;28;20555;-70
2021/04/09 09:08:41;;;;;;;4.22;1.85;;;11.90;54.40;;;;;;5078152;28;20065;-71
2021/04/09 09:11:07;;;;;;;5.43;1.70;;;12.00;54.80;;;;;;5094229;28;20032;-71
2021/04/09 09:13:44;;;;;;;5.93;1.92;;;12.10;54.70;;;;;;5093488;28;20032;-70
2021/04/09 09:16:17;;;;;;;3.08;1.80;;;12.30;53.20;;;;;;5075190;28;20020;-70
2021/04/09 09:19:02;;;;;;;2.63;1.65;;;12.60;51.70;;;;;;5092474;28;20101;-74
2021/04/09 09:21:33;;;;;;;3.80;1.73;;;12.70;50.10;;;;;;5087583;28;20055;-75
2021/04/09 09:24:01;;;;;;;4.00;2.00;;;12.80;51.60;;;;;;5089479;28;20315;-75
2021/04/09 09:26:38;;;;;;;3.20;1.60;;;13.00;49.40;;;;;;5092757;28;20020;-71
2021/04/09 09:29:21;;;;;;;4.85;1.60;;;13.10;50.20;;;;;;5093708;28;20024;-73
2021/04/09 09:31:46;;;;;;;5.28;2.05;;;13.30;50.20;;;;;;5078332;28;20028;-65
2021/04/09 09:34:21;;;;;;;5.60;2.00;;;13.40;49.70;;;;;;5077797;28;20472;-65
2021/04/09 09:37:06;;;;;;;5.00;1.90;;;13.60;48.60;;;;;;5078355;28;20020;-66
2021/04/09 09:39:35;;;;;;;4.13;1.70;;;13.70;49.50;;;;;;5089097;28;20020;-65
2021/04/09 09:42:01;;;;;;;4.57;2.10;;;13.90;49.70;;;;;;5089640;28;20021;-67
2021/04/09 09:44:33;;;;;;;7.13;2.03;;;14.00;49.90;;;;;;5089036;28;20039;-68
2021/04/09 09:47:01;;;;;;;3.95;1.90;;;14.20;48.30;;;;;;5089819;28;20135;-67
2021/04/09 09:49:34;;;;;;;3.72;2.10;;;14.50;49.90;;;;;;5089323;28;20365;-68
2021/04/09 09:52:00;;;;;;;4.15;1.90;;;14.70;48.50;;;;;;5084997;28;20150;-68
2021/04/09 09:54:29;;;;;;;3.55;2.00;;;15.00;48.10;;;;;;5085459;28;20017;-68
2021/04/09 09:56:56;;;;;;;4.57;2.10;;;15.10;47.80;;;;;;5079449;28;20052;-65
2021/04/09 09:59:25;;;;;;;2.88;1.70;;;15.20;48.10;;;;;;5077538;28;20081;-68
2021/04/09 10:01:56;;;;;;;6.18;2.88;;;15.40;48.60;;;;;;5060750;28;20027;-68
2021/04/09 10:04:22;;;;;;;6.30;2.00;;;15.70;46.50;;;;;;5078191;28;20033;-68
2021/04/09 10:06:55;;;;;;;3.58;1.95;;;15.80;44.40;;;;;;5079746;28;20056;-72
2021/04/09 10:09:29;;;;;;;3.55;1.85;;;15.90;44.80;;;;;;5092409;28;20122;-72
2021/04/09 10:11:55;;;;;;;3.38;1.83;;;16.00;46.30;;;;;;5074357;28;20107;-70
2021/04/09 10:14:21;;;;;;;4.90;2.70;;;16.20;46.30;;;;;;5087841;28;20028;-72
2021/04/09 10:16:47;;;;;;;6.85;2.47;;;16.30;44.50;;;;;;5090239;28;20696;-70
2021/04/09 10:19:13;;;;;;;2.97;1.92;;;16.60;45.10;;;;;;5087252;28;20500;-72
2021/04/09 10:21:40;;;;;;;3.65;1.75;;;16.70;44.20;;;;;;5094158;28;20028;-71
2021/04/09 10:24:17;;;;;;;5.85;2.13;;;16.70;42.30;;;;;;5086885;28;20483;-72
2021/04/09 10:26:49;;;;;;;8.73;2.30;;;16.70;42.70;;;;;;5090056;28;20091;-71
2021/04/09 10:29:18;;;;;;;4.32;2.10;;;16.80;43.60;;;;;;5087565;28;20027;-72
2021/04/09 10:31:43;;;;;;;4.78;1.88;;;16.80;44.60;;;;;;5084600;28;20353;-74
2021/04/09 10:34:09;;;;;;;7.38;1.90;;;17.00;43.10;;;;;;5081634;28;20066;-70
2021/04/09 10:36:35;;;;;;;6.63;2.03;;;17.20;42.60;;;;;;5084110;28;20031;-78
2021/04/09 10:39:10;;;;;;;4.57;1.90;;;17.40;41.90;;;;;;5078815;28;20054;-68
2021/04/09 10:41:42;;;;;;;3.97;1.80;;;17.50;41.30;;;;;;5066466;28;20024;-68
2021/04/09 10:44:17;;;;;;;6.28;1.88;;;17.60;41.10;;;;;;5081344;28;20061;-66
2021/04/09 10:46:47;;;;;;;4.38;2.08;;;17.60;41.90;;;;;;5082606;28;20029;-66
2021/04/09 10:49:19;;;;;;;3.70;1.85;;;17.70;42.00;;;;;;5076360;28;20047;-66
2021/04/09 10:51:47;;;;;;;3.83;1.90;;;17.90;40.50;;;;;;5068369;28;20036;-66
2021/04/09 10:54:18;;;;;;;3.47;1.60;;;18.10;39.40;;;;;;5069938;28;20016;-66
2021/04/09 10:56:50;;;;;;;2.63;1.70;;;18.10;41.10;;;;;;5072040;28;20075;-66
2021/04/09 10:59:17;;;;;;;8.77;2.40;;;18.00;41.70;;;;;;5085469;28;20012;-66
2021/04/09 11:01:43;;;;;;;5.30;1.98;;;18.10;40.00;;;;;;5085490;28;20061;-66
2021/04/09 11:04:08;;;;;;;4.45;1.98;;;18.50;41.10;;;;;;5084531;28;20028;-66
2021/04/09 11:06:34;;;;;;;2.53;1.77;;;18.60;39.10;;;;;;5084375;28;20035;-66
2021/04/09 11:09:08;;;;;;;4.05;2.10;;;18.70;38.40;;;;;;5085989;28;20024;-66
2021/04/09 11:11:36;;;;;;;3.73;1.70;;;18.70;38.40;;;;;;5083379;28;20484;-68
2021/04/09 11:14:22;;;;;;;5.28;2.17;;;18.50;37.60;;;;;;5080330;28;20020;-66
2021/04/09 11:16:49;;;;;;;2.85;1.80;;;18.20;39.40;;;;;;5077460;28;20353;-70
2021/04/09 11:19:22;;;;;;;4.35;1.88;;;18.30;37.40;;;;;;5076162;28;20081;-70
2021/04/09 11:21:50;;;;;;;3.17;1.70;;;18.10;36.80;;;;;;5073968;28;20023;-70
2021/04/09 11:24:31;;;;;;;4.03;1.92;;;18.10;36.40;;;;;;5079711;28;20024;-67
2021/04/09 11:26:59;;;;;;;2.78;1.52;;;18.30;36.90;;;;;;5076501;28;20151;-67
2021/04/09 11:29:28;;;;;;;5.18;1.63;;;18.20;36.20;;;;;;5078753;28;20551;-67
2021/04/09 11:32:20;;;;;;;3.95;1.65;;;18.00;38.20;;;;;;5077101;28;20580;-67
2021/04/09 11:34:50;;;;;;;4.70;2.22;;;17.80;38.60;;;;;;5076175;28;20575;-68
2021/04/09 11:37:17;;;;;;;5.38;2.35;;;17.70;38.50;;;;;;5082720;28;20051;-67
2021/04/09 11:39:54;;;;;;;7.63;2.67;;;17.60;38.30;;;;;;5083936;28;20085;-69
2021/04/09 11:42:52;;;;;;;2.65;1.90;;;17.60;39.30;;;;;;5081008;28;20060;-70
2021/04/09 11:45:17;;;;;;;6.18;2.00;;;17.50;38.60;;;;;;5061887;28;20045;-67
2021/04/09 11:47:44;;;;;;;4.35;1.60;;;17.60;38.80;;;;;;5080738;28;20081;-67
2021/04/09 11:50:25;;;;;;;4.78;2.05;;;17.60;38.80;;;;;;5082408;28;20532;-67
2021/04/09 11:53:01;;;;;;;4.45;1.80;;;17.70;39.20;;;;;;5086903;28;20032;-68
2021/04/09 11:55:32;;;;;;;4.35;2.10;;;17.70;38.50;;;;;;5086329;28;21267;-66
2021/04/09 11:57:58;;;;;;;3.35;1.83;;;17.80;41.30;;;;;;5083028;28;20036;-66
2021/04/09 12:00:28;;;;;;;5.28;1.73;;;18.10;38.90;;;;;;5087233;28;20030;-66
2021/04/09 12:02:59;;;;;;;3.40;1.83;;;18.50;38.40;;;;;;5089112;28;20028;-66
2021/04/09 12:05:30;;;;;;;2.70;1.65;;;18.80;40.50;;;;;;5089908;28;20072;-66
2021/04/09 12:07:56;;;;;;;2.67;1.60;;;19.30;38.90;;;;;;5091480;28;20032;-66
2021/04/09 12:10:23;;;;;;;4.97;2.00;;;19.60;37.40;;;;;;5091019;28;20032;-70
2021/04/09 12:12:50;;;;;;;4.07;1.60;;;19.70;36.10;;;;;;5089198;28;20020;-70
2021/04/09 12:15:17;;;;;;;4.20;1.70;;;19.40;36.60;;;;;;5088625;28;20506;-70
2021/04/09 12:17:42;;;;;;;4.63;1.90;;;19.30;35.70;;;;;;5075798;28;20102;-70
2021/04/09 12:20:16;;;;;;;5.15;1.83;;;19.50;38.40;;;;;;5088286;28;20024;-70
2021/04/09 12:22:43;;;;;;;3.00;1.63;;;19.60;36.80;;;;;;5076986;28;20436;-70
2021/04/09 12:25:10;;;;;;;3.28;1.70;;;19.70;37.20;;;;;;5083832;28;20561;-70
2021/04/09 12:27:37;;;;;;;3.70;1.52;;;19.80;35.40;;;;;;5073625;28;20036;-70
2021/04/09 12:30:04;;;;;;;3.67;1.50;;;19.70;35.10;;;;;;5069622;28;20028;-70
2021/04/09 12:32:30;;;;;;;2.70;1.60;;;19.70;35.80;;;;;;5075248;28;20023;-70
2021/04/09 12:34:57;;;;;;;4.38;1.85;;;19.30;35.10;;;;;;5084715;28;20091;-70
2021/04/09 12:37:23;;;;;;;6.13;1.80;;;19.00;35.20;;;;;;5074904;28;20464;-70
2021/04/09 12:39:48;;;;;;;2.88;1.58;;;18.80;37.30;;;;;;5080894;28;20031;-70
2021/04/09 12:42:14;;;;;;;3.28;1.70;;;18.40;37.60;;;;;;5079582;28;20036;-70
2021/04/09 12:44:40;;;;;;;3.28;1.77;;;18.40;37.80;;;;;;5079850;28;20031;-70
2021/04/09 12:47:05;;;;;;;5.00;2.00;;;18.30;37.60;;;;;;5082819;28;20488;-65
2021/04/09 12:49:31;;;;;;;3.38;1.80;;;18.10;37.50;;;;;;5082409;28;20028;-66
2021/04/09 12:51:57;;;;;;;3.88;2.03;;;18.10;39.60;;;;;;5065214;28;20108;-66
2021/04/09 12:54:23;;;;;;;3.65;1.65;;;18.00;37.70;;;;;;5081618;28;20846;-66
2021/04/09 12:56:49;;;;;;;3.20;1.70;;;18.00;37.40;;;;;;5082587;28;20168;-70